Time;durP1;ratioP1;P1;durP2;ratioP2;P2;SDS_P1;SDS_P2;PMS_P1;PMS_P2;Temp;Humidity;BMP_temperature;BMP_pressure;BME280_temperature;BME280_humidity;BME280_pressure;Samples;Min_cycle;Max_cycle;Signal;HPM_P1;HPM_P2
2023/02/11 00:01:33;;;;;;;;;;;;;;;;;;5040544;28;19940;-83
2023/02/11 00:03:59;;;;;;;;;;;;;;;;;;5049140;28;20378;-83
2023/02/11 00:06:25;;;;;;;;;;;;;;;;;;5039030;28;20012;-82
2023/02/11 00:08:51;;;;;;;;;;;;;;;;;;5039287;28;19916;-82
2023/02/11 00:11:17;;;;;;;;;;;;;;;;;;5037851;28;19909;-82
2023/02/11 00:13:43;;;;;;;;;;;;;;;;;;5036778;28;19913;-82
2023/02/11 00:16:09;;;;;;;;;;;;;;;;;;5038666;28;20012;-83
2023/02/11 00:18:35;;;;;;;;;;;;;;;;;;5039918;28;20500;-82
2023/02/11 00:21:01;;;;;;;;;;;;;;;;;;5021191;28;19925;-82
2023/02/11 00:23:27;;;;;;;;;;;;;;;;;;5041572;28;19916;-82
2023/02/11 00:25:52;;;;;;;;;;;;;;;;;;5054938;28;19916;-82
2023/02/11 00:28:18;;;;;;;;;;;;;;;;;;5038470;28;19917;-81
2023/02/11 00:30:44;;;;;;;;;;;;;;;;;;5047454;28;19963;-83
2023/02/11 00:33:10;;;;;;;;;;;;;;;;;;5042674;28;19984;-83
2023/02/11 00:35:36;;;;;;;;;;;;;;;;;;5037737;28;19909;-82
2023/02/11 00:38:02;;;;;;;;;;;;;;;;;;5043575;28;19914;-83
2023/02/11 00:40:28;;;;;;;;;;;;;;;;;;5036805;28;19913;-82
2023/02/11 00:42:54;;;;;;;;;;;;;;;;;;5036783;28;19914;-83
2023/02/11 00:45:20;;;;;;;;;;;;;;;;;;5046589;28;19971;-82
2023/02/11 00:47:46;;;;;;;;;;;;;;;;;;5040529;28;19975;-83
2023/02/11 00:50:12;;;;;;;;;;;;;;;;;;5055238;28;19912;-82
2023/02/11 00:52:38;;;;;;;;;;;;;;;;;;5024431;28;19955;-83
2023/02/11 00:55:04;;;;;;;;;;;;;;;;;;5051300;28;20203;-83
2023/02/11 00:57:29;;;;;;;;;;;;;;;;;;5048554;28;19944;-82
2023/02/11 00:59:55;;;;;;;;;;;;;;;;;;5030570;28;20287;-82
2023/02/11 01:02:21;;;;;;;;;;;;;;;;;;5035194;28;20012;-82
2023/02/11 01:04:47;;;;;;;;;;;;;;;;;;5035348;28;19920;-81
2023/02/11 01:07:13;;;;;;;;;;;;;;;;;;5034806;28;20374;-83
2023/02/11 01:09:39;;;;;;;;;;;;;;;;;;5040191;28;19971;-85
2023/02/11 01:12:05;;;;;;;;;;;;;;;;;;5038825;28;19913;-84
2023/02/11 01:14:31;;;;;;;;;;;;;;;;;;5040579;28;19913;-84
2023/02/11 01:16:57;;;;;;;;;;;;;;;;;;5036383;28;19917;-85
2023/02/11 01:19:23;;;;;;;;;;;;;;;;;;5046702;28;19949;-84
2023/02/11 01:21:48;;;;;;;;;;;;;;;;;;5039773;28;19913;-85
2023/02/11 01:24:14;;;;;;;;;;;;;;;;;;5038822;28;19921;-84
2023/02/11 01:26:40;;;;;;;;;;;;;;;;;;5039631;28;20007;-85
2023/02/11 01:29:08;;;;;;;;;;;;;;;;;;5044906;28;19921;-85
2023/02/11 01:31:34;;;;;;;;;;;;;;;;;;5021219;28;19913;-84
2023/02/11 01:33:59;;;;;;;;;;;;;;;;;;5037670;28;19915;-84
2023/02/11 01:36:25;;;;;;;;;;;;;;;;;;5036927;28;19917;-84
2023/02/11 01:38:51;;;;;;;;;;;;;;;;;;5025405;28;19919;-85
2023/02/11 01:41:17;;;;;;;;;;;;;;;;;;5037813;28;19921;-84
2023/02/11 01:43:43;;;;;;;;;;;;;;;;;;5032607;28;20279;-84
2023/02/11 01:46:09;;;;;;;;;;;;;;;;;;5027349;28;19913;-84
2023/02/11 01:48:35;;;;;;;;;;;;;;;;;;5032928;28;19917;-83
2023/02/11 01:51:01;;;;;;;;;;;;;;;;;;5033374;28;19921;-84
2023/02/11 01:58:56;;;;;;;;;;;;;;;;;;5037832;28;19920;-84
2023/02/11 02:01:22;;;;;;;;;;;;;;;;;;5033137;28;20282;-84
2023/02/11 02:03:48;;;;;;;;;;;;;;;;;;5033189;28;19913;-84
2023/02/11 02:06:14;;;;;;;;;;;;;;;;;;5032400;28;19909;-84
2023/02/11 02:08:39;;;;;;;;;;;;;;;;;;5032806;28;19936;-84
2023/02/11 02:11:05;;;;;;;;;;;;;;;;;;5039125;28;19943;-84
2023/02/11 02:13:31;;;;;;;;;;;;;;;;;;5032695;28;20375;-84
2023/02/11 02:15:57;;;;;;;;;;;;;;;;;;5015155;28;19917;-84
2023/02/11 02:18:23;;;;;;;;;;;;;;;;;;5038453;28;19913;-84
2023/02/11 02:20:49;;;;;;;;;;;;;;;;;;5039663;28;19913;-84
2023/02/11 02:23:15;;;;;;;;;;;;;;;;;;5015955;28;20428;-84
2023/02/11 02:25:41;;;;;;;;;;;;;;;;;;5017326;28;19995;-84
2023/02/11 02:28:07;;;;;;;;;;;;;;;;;;5038422;28;19913;-84
2023/02/11 02:30:32;;;;;;;;;;;;;;;;;;5040565;28;19940;-83
2023/02/11 02:32:58;;;;;;;;;;;;;;;;;;5017203;28;19960;-83
2023/02/11 02:35:24;;;;;;;;;;;;;;;;;;5032834;28;19913;-82
2023/02/11 02:37:50;;;;;;;;;;;;;;;;;;5032778;28;20295;-82
2023/02/11 02:40:16;;;;;;;;;;;;;;;;;;5035309;28;19932;-83
2023/02/11 02:42:42;;;;;;;;;;;;;;;;;;5045502;28;19913;-82
2023/02/11 02:45:08;;;;;;;;;;;;;;;;;;5033184;28;19909;-82
2023/02/11 02:47:34;;;;;;;;;;;;;;;;;;5014483;28;19925;-83
2023/02/11 02:50:00;;;;;;;;;;;;;;;;;;5034228;28;19920;-83
2023/02/11 02:52:26;;;;;;;;;;;;;;;;;;5036248;28;19916;-83
2023/02/11 02:54:51;;;;;;;;;;;;;;;;;;5055054;28;19917;-83
2023/02/11 02:57:17;;;;;;;;;;;;;;;;;;5054739;28;19917;-83
2023/02/11 02:59:43;;;;;;;;;;;;;;;;;;5036675;28;19909;-83
2023/02/11 03:02:09;;;;;;;;;;;;;;;;;;5035348;28;19913;-83
2023/02/11 03:04:35;;;;;;;;;;;;;;;;;;5050486;28;20015;-83
2023/02/11 03:07:01;;;;;;;;;;;;;;;;;;5028146;28;19913;-82
2023/02/11 03:09:27;;;;;;;;;;;;;;;;;;5036944;28;19917;-83
2023/02/11 03:11:53;;;;;;;;;;;;;;;;;;5037441;28;19920;-83
2023/02/11 03:14:19;;;;;;;;;;;;;;;;;;5034978;28;19957;-82
2023/02/11 03:16:45;;;;;;;;;;;;;;;;;;5017880;28;20422;-83
2023/02/11 03:19:11;;;;;;;;;;;;;;;;;;5020154;28;19944;-83
2023/02/11 03:21:37;;;;;;;;;;;;;;;;;;5037235;28;20008;-83
2023/02/11 03:24:04;;;;;;;;;;;;;;;;;;5041437;28;20358;-82
2023/02/11 03:26:29;;;;;;;;;;;;;;;;;;5063254;28;19909;-82
2023/02/11 03:28:55;;;;;;;;;;;;;;;;;;5044718;28;20397;-82
2023/02/11 03:31:21;;;;;;;;;;;;;;;;;;5042295;28;19909;-82
2023/02/11 03:33:47;;;;;;;;;;;;;;;;;;5042158;28;19923;-83
2023/02/11 03:36:14;;;;;;;;;;;;;;;;;;5041380;28;20404;-83
2023/02/11 03:38:40;;;;;;;;;;;;;;;;;;5028786;28;19913;-83
2023/02/11 03:41:05;;;;;;;;;;;;;;;;;;5036667;28;19913;-82
2023/02/11 03:43:31;;;;;;;;;;;;;;;;;;5017399;28;19913;-82
2023/02/11 03:45:57;;;;;;;;;;;;;;;;;;5039912;28;19913;-82
2023/02/11 03:48:23;;;;;;;;;;;;;;;;;;5038771;28;19913;-82
2023/02/11 03:50:49;;;;;;;;;;;;;;;;;;5036630;28;19940;-82
2023/02/11 03:53:15;;;;;;;;;;;;;;;;;;5037800;28;19952;-81
2023/02/11 03:55:41;;;;;;;;;;;;;;;;;;5053137;28;20007;-82
2023/02/11 03:58:07;;;;;;;;;;;;;;;;;;5039516;28;19913;-83
2023/02/11 04:00:33;;;;;;;;;;;;;;;;;;5035144;28;19935;-81
2023/02/11 04:02:59;;;;;;;;;;;;;;;;;;5030135;28;19916;-82
2023/02/11 04:05:24;;;;;;;;;;;;;;;;;;5039221;28;20139;-82
2023/02/11 04:07:50;;;;;;;;;;;;;;;;;;5029440;28;19951;-82
2023/02/11 04:10:16;;;;;;;;;;;;;;;;;;5037272;28;19913;-82
2023/02/11 04:12:42;;;;;;;;;;;;;;;;;;5056191;28;19909;-82
2023/02/11 04:15:08;;;;;;;;;;;;;;;;;;5048694;28;19928;-82
2023/02/11 04:17:34;;;;;;;;;;;;;;;;;;5032643;28;19925;-82
2023/02/11 04:20:00;;;;;;;;;;;;;;;;;;5018736;28;19910;-82
2023/02/11 04:22:26;;;;;;;;;;;;;;;;;;5036338;28;19979;-82
2023/02/11 04:24:51;;;;;;;;;;;;;;;;;;5054890;28;19960;-82
2023/02/11 04:27:17;;;;;;;;;;;;;;;;;;5048708;28;19913;-82
2023/02/11 04:29:43;;;;;;;;;;;;;;;;;;5018245;28;19921;-81
2023/02/11 04:32:09;;;;;;;;;;;;;;;;;;5035752;28;19935;-81
2023/02/11 04:34:35;;;;;;;;;;;;;;;;;;5043868;28;19962;-82
2023/02/11 04:37:01;;;;;;;;;;;;;;;;;;5035434;28;19924;-82
2023/02/11 04:39:27;;;;;;;;;;;;;;;;;;5039374;28;19913;-82
2023/02/11 04:41:53;;;;;;;;;;;;;;;;;;5036231;28;20059;-82
2023/02/11 04:44:19;;;;;;;;;;;;;;;;;;5048389;28;19916;-82
2023/02/11 04:46:44;;;;;;;;;;;;;;;;;;5047749;28;19917;-82
2023/02/11 04:49:10;;;;;;;;;;;;;;;;;;5018371;28;19921;-82
2023/02/11 04:51:36;;;;;;;;;;;;;;;;;;5018168;28;19909;-81
2023/02/11 04:54:02;;;;;;;;;;;;;;;;;;5044501;28;19948;-81
2023/02/11 04:56:28;;;;;;;;;;;;;;;;;;5037528;28;20281;-82
2023/02/11 04:58:54;;;;;;;;;;;;;;;;;;5040983;28;20279;-82
2023/02/11 05:01:20;;;;;;;;;;;;;;;;;;5018028;28;19915;-82
2023/02/11 05:03:46;;;;;;;;;;;;;;;;;;5035235;28;19913;-83
2023/02/11 05:06:12;;;;;;;;;;;;;;;;;;5025255;28;19914;-82
2023/02/11 05:08:38;;;;;;;;;;;;;;;;;;5027172;28;19913;-82
2023/02/11 05:11:03;;;;;;;;;;;;;;;;;;5060149;28;19908;-82
2023/02/11 05:13:29;;;;;;;;;;;;;;;;;;5043615;28;19913;-83
2023/02/11 05:15:55;;;;;;;;;;;;;;;;;;5043362;28;19912;-81
2023/02/11 05:18:21;;;;;;;;;;;;;;;;;;5050918;28;19913;-82
2023/02/11 05:20:47;;;;;;;;;;;;;;;;;;5026263;28;19913;-81
2023/02/11 05:23:13;;;;;;;;;;;;;;;;;;5022842;28;20372;-83
2023/02/11 05:25:39;;;;;;;;;;;;;;;;;;5038532;28;19920;-82
2023/02/11 05:28:05;;;;;;;;;;;;;;;;;;5049268;28;19920;-82
2023/02/11 05:30:31;;;;;;;;;;;;;;;;;;5036733;28;19937;-81
2023/02/11 05:32:57;;;;;;;;;;;;;;;;;;5035283;28;19935;-82
2023/02/11 05:35:23;;;;;;;;;;;;;;;;;;5017936;28;20000;-81
2023/02/11 05:37:49;;;;;;;;;;;;;;;;;;5035050;28;19917;-81
2023/02/11 05:40:15;;;;;;;;;;;;;;;;;;5034279;28;19913;-81
2023/02/11 05:42:41;;;;;;;;;;;;;;;;;;5036976;28;20008;-82
2023/02/11 05:45:06;;;;;;;;;;;;;;;;;;5041519;28;20380;-81
2023/02/11 05:47:32;;;;;;;;;;;;;;;;;;5036737;28;20335;-81
2023/02/11 05:49:58;;;;;;;;;;;;;;;;;;5011333;28;19920;-81
2023/02/11 05:52:24;;;;;;;;;;;;;;;;;;5030145;28;20317;-82
2023/02/11 05:54:50;;;;;;;;;;;;;;;;;;5015497;28;19921;-82
2023/02/11 05:57:16;;;;;;;;;;;;;;;;;;5039993;28;19948;-82
2023/02/11 05:59:42;;;;;;;;;;;;;;;;;;5035849;28;19919;-82
2023/02/11 06:02:08;;;;;;;;;;;;;;;;;;5038897;28;19916;-83
2023/02/11 06:04:34;;;;;;;;;;;;;;;;;;5028699;28;19940;-81
2023/02/11 06:07:00;;;;;;;;;;;;;;;;;;5034452;28;19913;-82
2023/02/11 06:09:25;;;;;;;;;;;;;;;;;;5031804;28;19980;-83
2023/02/11 06:11:51;;;;;;;;;;;;;;;;;;5015446;28;19913;-81
2023/02/11 06:14:17;;;;;;;;;;;;;;;;;;5030999;28;19913;-81
2023/02/11 06:16:44;;;;;;;;;;;;;;;;;;5019756;28;19917;-81
2023/02/11 06:19:10;;;;;;;;;;;;;;;;;;5033343;28;19913;-81
2023/02/11 06:21:36;;;;;;;;;;;;;;;;;;5038793;28;19923;-80
2023/02/11 06:24:01;;;;;;;;;;;;;;;;;;5038388;28;19917;-81
2023/02/11 06:26:27;;;;;;;;;;;;;;;;;;5036232;28;20367;-84
2023/02/11 06:28:53;;;;;;;;;;;;;;;;;;5036197;28;20172;-81
2023/02/11 06:31:19;;;;;;;;;;;;;;;;;;5015448;28;19953;-80
2023/02/11 06:33:45;;;;;;;;;;;;;;;;;;5038948;28;19917;-82
2023/02/11 06:36:11;;;;;;;;;;;;;;;;;;5036213;28;19979;-82
2023/02/11 06:38:37;;;;;;;;;;;;;;;;;;5036742;28;19913;-81
2023/02/11 06:41:03;;;;;;;;;;;;;;;;;;5023421;28;19920;-82
2023/02/11 06:43:28;;;;;;;;;;;;;;;;;;5030179;28;19917;-80
2023/02/11 06:45:54;;;;;;;;;;;;;;;;;;5034391;28;19917;-81
2023/02/11 06:48:21;;;;;;;;;;;;;;;;;;5018861;28;19913;-80
2023/02/11 06:50:46;;;;;;;;;;;;;;;;;;5036731;28;19913;-81
2023/02/11 06:53:12;;;;;;;;;;;;;;;;;;5047581;28;19913;-81
2023/02/11 06:55:38;;;;;;;;;;;;;;;;;;5040594;28;19920;-82
2023/02/11 06:58:04;;;;;;;;;;;;;;;;;;5017895;28;19981;-81
2023/02/11 07:00:30;;;;;;;;;;;;;;;;;;5037795;28;19963;-82
2023/02/11 07:02:56;;;;;;;;;;;;;;;;;;5043294;28;20391;-82
2023/02/11 07:05:22;;;;;;;;;;;;;;;;;;5038157;28;19909;-80
2023/02/11 07:07:48;;;;;;;;;;;;;;;;;;5019229;28;19917;-80
2023/02/11 07:10:14;;;;;;;;;;;;;;;;;;5035175;28;19913;-80
2023/02/11 07:12:40;;;;;;;;;;;;;;;;;;5036688;28;19921;-81
2023/02/11 07:15:06;;;;;;;;;;;;;;;;;;5037148;28;19913;-81
2023/02/11 07:23:01;;;;;;;;;;;;;;;;;;5034519;28;19915;-82
2023/02/11 07:25:27;;;;;;;;;;;;;;;;;;5018442;28;20290;-81
2023/02/11 07:27:53;;;;;;;;;;;;;;;;;;5026855;28;19913;-80
2023/02/11 07:30:19;;;;;;;;;;;;;;;;;;5019482;28;19921;-80
2023/02/11 07:32:45;;;;;;;;;;;;;;;;;;5035755;28;19920;-82
2023/02/11 07:35:10;;;;;;;;;;;;;;;;;;5035705;28;19921;-80
2023/02/11 07:37:36;;;;;;;;;;;;;;;;;;5036416;28;19913;-81
2023/02/11 07:40:02;;;;;;;;;;;;;;;;;;5037008;28;19951;-80
2023/02/11 07:42:28;;;;;;;;;;;;;;;;;;5015186;28;20391;-81
2023/02/11 07:44:54;;;;;;;;;;;;;;;;;;5040944;28;19920;-81
2023/02/11 07:47:20;;;;;;;;;;;;;;;;;;5037870;28;19916;-80
2023/02/11 07:49:46;;;;;;;;;;;;;;;;;;5018254;28;19910;-82
2023/02/11 07:52:12;;;;;;;;;;;;;;;;;;5026372;28;19909;-81
2023/02/11 07:54:38;;;;;;;;;;;;;;;;;;5044809;28;19913;-82
2023/02/11 07:57:04;;;;;;;;;;;;;;;;;;5012713;28;19940;-81
2023/02/11 07:59:30;;;;;;;;;;;;;;;;;;5034232;28;20283;-80
2023/02/11 08:01:56;;;;;;;;;;;;;;;;;;5037154;28;19920;-82
2023/02/11 08:04:22;;;;;;;;;;;;;;;;;;5037237;28;19913;-81
2023/02/11 08:06:51;;;;;;;;;;;;;;;;;;5037322;28;19936;-82
2023/02/11 08:09:17;;;;;;;;;;;;;;;;;;5037511;28;19953;-81
2023/02/11 08:11:43;;;;;;;;;;;;;;;;;;5011027;28;20300;-80
2023/02/11 08:14:09;;;;;;;;;;;;;;;;;;5023672;28;19913;-81
2023/02/11 08:16:35;;;;;;;;;;;;;;;;;;5016648;28;19984;-81
2023/02/11 08:19:01;;;;;;;;;;;;;;;;;;5037683;28;19913;-80
2023/02/11 08:21:26;;;;;;;;;;;;;;;;;;5041912;28;19923;-79
2023/02/11 08:23:52;;;;;;;;;;;;;;;;;;5040025;28;19913;-81
2023/02/11 08:26:18;;;;;;;;;;;;;;;;;;5041254;28;19917;-81
2023/02/11 08:28:44;;;;;;;;;;;;;;;;;;5039697;28;19980;-81
2023/02/11 08:31:10;;;;;;;;;;;;;;;;;;5022011;28;20367;-81
2023/02/11 08:33:36;;;;;;;;;;;;;;;;;;5038082;28;20370;-82
2023/02/11 08:36:02;;;;;;;;;;;;;;;;;;5024270;28;19913;-82
2023/02/11 08:38:28;;;;;;;;;;;;;;;;;;5021295;28;19917;-81
2023/02/11 08:40:54;;;;;;;;;;;;;;;;;;5040898;28;19944;-81
2023/02/11 08:43:22;;;;;;;;;;;;;;;;;;5041127;28;19913;-81
2023/02/11 08:45:47;;;;;;;;;;;;;;;;;;5027736;28;19913;-81
2023/02/11 08:48:13;;;;;;;;;;;;;;;;;;5041813;28;19928;-82
2023/02/11 08:50:39;;;;;;;;;;;;;;;;;;5026122;28;20117;-82
2023/02/11 08:53:05;;;;;;;;;;;;;;;;;;5042459;28;19968;-83
2023/02/11 08:55:31;;;;;;;;;;;;;;;;;;5050446;28;19924;-82
2023/02/11 08:57:57;;;;;;;;;;;;;;;;;;5036507;28;19947;-83
2023/02/11 09:00:23;;;;;;;;;;;;;;;;;;5037044;28;19945;-83
2023/02/11 09:02:49;;;;;;;;;;;;;;;;;;5035903;28;19919;-83
2023/02/11 09:05:15;;;;;;;;;;;;;;;;;;5040166;28;19917;-83
2023/02/11 09:07:41;;;;;;;;;;;;;;;;;;5036242;28;19913;-83
2023/02/11 09:10:07;;;;;;;;;;;;;;;;;;5040361;28;19913;-85
2023/02/11 09:12:32;;;;;;;;;;;;;;;;;;5025814;28;19914;-84
2023/02/11 09:14:58;;;;;;;;;;;;;;;;;;5031153;28;20390;-84
2023/02/11 09:17:24;;;;;;;;;;;;;;;;;;5037321;28;19917;-82
2023/02/11 09:25:20;;;;;;;;;;;;;;;;;;5034688;28;19916;-83
2023/02/11 09:27:46;;;;;;;;;;;;;;;;;;5021170;28;19913;-83
2023/02/11 09:30:11;;;;;;;;;;;;;;;;;;5017051;28;20502;-82
2023/02/11 09:32:37;;;;;;;;;;;;;;;;;;5017614;28;19913;-84
2023/02/11 09:35:05;;;;;;;;;;;;;;;;;;5037209;28;19913;-83
2023/02/11 09:37:31;;;;;;;;;;;;;;;;;;5057067;28;19920;-84
2023/02/11 09:39:58;;;;;;;;;;;;;;;;;;5039677;28;19909;-84
2023/02/11 09:42:24;;;;;;;;;;;;;;;;;;5057007;28;19915;-83
2023/02/11 09:44:50;;;;;;;;;;;;;;;;;;5020571;28;19913;-83
2023/02/11 09:47:16;;;;;;;;;;;;;;;;;;5035726;28;20309;-85
2023/02/11 09:49:42;;;;;;;;;;;;;;;;;;5036384;28;20008;-85
2023/02/11 09:52:08;;;;;;;;;;;;;;;;;;5037702;28;19909;-84
2023/02/11 09:54:34;;;;;;;;;;;;;;;;;;5021471;28;20318;-84
2023/02/11 09:57:00;;;;;;;;;;;;;;;;;;5019621;28;19972;-82
2023/02/11 09:59:26;;;;;;;;;;;;;;;;;;5014881;28;19968;-83
2023/02/11 10:01:51;;;;;;;;;;;;;;;;;;5013956;28;19916;-82
2023/02/11 10:04:17;;;;;;;;;;;;;;;;;;5018018;28;19913;-83
2023/02/11 10:06:43;;;;;;;;;;;;;;;;;;5017524;28;19916;-83
2023/02/11 10:09:09;;;;;;;;;;;;;;;;;;5018135;28;19913;-82
2023/02/11 10:11:35;;;;;;;;;;;;;;;;;;5015229;28;19913;-82
2023/02/11 10:14:01;;;;;;;;;;;;;;;;;;5021181;28;19935;-84
2023/02/11 10:16:27;;;;;;;;;;;;;;;;;;5031229;28;20371;-84
2023/02/11 10:18:53;;;;;;;;;;;;;;;;;;5053844;28;19916;-83
2023/02/11 10:21:19;;;;;;;;;;;;;;;;;;5038291;28;19912;-84
2023/02/11 10:23:45;;;;;;;;;;;;;;;;;;5020026;28;19924;-84
2023/02/11 10:26:11;;;;;;;;;;;;;;;;;;5038038;28;19913;-84
2023/02/11 10:28:38;;;;;;;;;;;;;;;;;;5035314;28;19928;-84
2023/02/11 10:31:04;;;;;;;;;;;;;;;;;;5014573;28;19914;-84
2023/02/11 10:33:31;;;;;;;;;;;;;;;;;;5035714;28;19963;-84
2023/02/11 10:35:57;;;;;;;;;;;;;;;;;;5017544;28;19920;-83
2023/02/11 10:38:23;;;;;;;;;;;;;;;;;;5034417;28;19967;-84
2023/02/11 10:40:48;;;;;;;;;;;;;;;;;;5041307;28;19980;-84
2023/02/11 10:43:14;;;;;;;;;;;;;;;;;;5023729;28;19913;-83
2023/02/11 10:45:40;;;;;;;;;;;;;;;;;;5037741;28;19920;-83
2023/02/11 10:48:06;;;;;;;;;;;;;;;;;;5039391;28;19909;-82
2023/02/11 10:50:33;;;;;;;;;;;;;;;;;;5026099;28;19956;-81
2023/02/11 10:52:59;;;;;;;;;;;;;;;;;;5037432;28;19909;-80
2023/02/11 10:55:25;;;;;;;;;;;;;;;;;;5053737;28;19916;-84
2023/02/11 10:57:51;;;;;;;;;;;;;;;;;;5066007;28;20367;-85
2023/02/11 11:00:17;;;;;;;;;;;;;;;;;;5045031;28;19913;-84
2023/02/11 11:02:46;;;;;;;;;;;;;;;;;;5034851;28;19936;-85
2023/02/11 11:05:12;;;;;;;;;;;;;;;;;;5026302;28;19913;-81
2023/02/11 11:07:37;;;;;;;;;;;;;;;;;;5037031;28;19937;-84
2023/02/11 11:10:03;;;;;;;;;;;;;;;;;;5014783;28;19942;-83
2023/02/11 11:12:29;;;;;;;;;;;;;;;;;;5039670;28;19919;-84
2023/02/11 11:14:55;;;;;;;;;;;;;;;;;;5039755;28;19939;-82
2023/02/11 11:17:21;;;;;;;;;;;;;;;;;;5020623;28;20515;-83
2023/02/11 11:19:47;;;;;;;;;;;;;;;;;;5036939;28;20287;-85
2023/02/11 11:22:13;;;;;;;;;;;;;;;;;;5019135;28;19955;-84
2023/02/11 11:24:39;;;;;;;;;;;;;;;;;;5037777;28;20382;-82
2023/02/11 11:27:05;;;;;;;;;;;;;;;;;;5021244;28;19924;-85
2023/02/11 11:29:31;;;;;;;;;;;;;;;;;;5035821;28;20333;-83
2023/02/11 11:31:58;;;;;;;;;;;;;;;;;;5051170;28;19917;-79
2023/02/11 11:34:24;;;;;;;;;;;;;;;;;;5047300;28;19942;-82
2023/02/11 11:36:50;;;;;;;;;;;;;;;;;;5033995;28;19918;-82
2023/02/11 11:39:15;;;;;;;;;;;;;;;;;;5038257;28;19917;-83
2023/02/11 11:41:41;;;;;;;;;;;;;;;;;;5047546;28;19913;-85
2023/02/11 11:44:07;;;;;;;;;;;;;;;;;;5046063;28;19919;-82
2023/02/11 11:46:33;;;;;;;;;;;;;;;;;;5026351;28;19960;-84
2023/02/11 11:48:59;;;;;;;;;;;;;;;;;;5031935;28;19913;-83
2023/02/11 11:51:25;;;;;;;;;;;;;;;;;;5023756;28;19913;-82
2023/02/11 11:53:51;;;;;;;;;;;;;;;;;;5032642;28;19943;-84
2023/02/11 11:56:17;;;;;;;;;;;;;;;;;;5041099;28;19920;-81
2023/02/11 11:58:43;;;;;;;;;;;;;;;;;;5043368;28;19998;-83
2023/02/11 12:01:08;;;;;;;;;;;;;;;;;;5040877;28;20008;-83
2023/02/11 12:03:34;;;;;;;;;;;;;;;;;;5021387;28;19979;-82
2023/02/11 12:06:00;;;;;;;;;;;;;;;;;;5020888;28;19939;-82
2023/02/11 12:08:26;;;;;;;;;;;;;;;;;;5019495;28;20369;-82
2023/02/11 12:10:52;;;;;;;;;;;;;;;;;;5034823;28;19914;-83
2023/02/11 12:13:18;;;;;;;;;;;;;;;;;;5032697;28;19936;-82
2023/02/11 12:15:44;;;;;;;;;;;;;;;;;;5038521;28;19909;-82
2023/02/11 12:18:10;;;;;;;;;;;;;;;;;;5038890;28;19917;-85
2023/02/11 12:20:36;;;;;;;;;;;;;;;;;;5039474;28;19931;-85
2023/02/11 12:23:02;;;;;;;;;;;;;;;;;;5036949;28;19913;-83
2023/02/11 12:25:28;;;;;;;;;;;;;;;;;;5039937;28;20020;-83
2023/02/11 12:27:54;;;;;;;;;;;;;;;;;;5021698;28;19913;-85
2023/02/11 12:30:20;;;;;;;;;;;;;;;;;;5036255;28;19921;-84
2023/02/11 12:32:45;;;;;;;;;;;;;;;;;;5043266;28;20183;-84
2023/02/11 12:35:11;;;;;;;;;;;;;;;;;;5041163;28;19909;-84
2023/02/11 12:37:37;;;;;;;;;;;;;;;;;;5041304;28;19964;-83
2023/02/11 12:40:03;;;;;;;;;;;;;;;;;;5038939;28;20055;-84
2023/02/11 12:45:14;;;;;;;;;;;;;;;;;;5040661;28;20386;-84
2023/02/11 12:47:40;;;;;;;;;;;;;;;;;;5036661;28;19916;-85
2023/02/11 12:50:06;;;;;;;;;;;;;;;;;;5020197;28;20283;-85
2023/02/11 12:52:32;;;;;;;;;;;;;;;;;;5041748;28;19913;-83
2023/02/11 12:54:58;;;;;;;;;;;;;;;;;;5058208;28;19959;-82
2023/02/11 12:57:25;;;;;;;;;;;;;;;;;;5045318;28;19918;-80
2023/02/11 12:59:54;;;;;;;;;;;;;;;;;;5037263;28;20058;-82
2023/02/11 13:02:20;;;;;;;;;;;;;;;;;;5037868;28;20268;-83
2023/02/11 13:04:45;;;;;;;;;;;;;;;;;;5038720;28;20012;-84
2023/02/11 13:07:11;;;;;;;;;;;;;;;;;;5018137;28;19913;-83
2023/02/11 13:09:37;;;;;;;;;;;;;;;;;;5034587;28;20382;-85
2023/02/11 13:13:15;;;;;;;;;;;;;;;;;;5038153;28;19920;-86
2023/02/11 13:14:49;;;;;;;;;;;;;;;;;;5045285;28;20367;-83
2023/02/11 13:17:16;;;;;;;;;;;;;;;;;;5057409;28;19959;-85
2023/02/11 13:19:42;;;;;;;;;;;;;;;;;;5057904;28;19948;-85
2023/02/11 13:22:08;;;;;;;;;;;;;;;;;;5046114;28;20374;-84
2023/02/11 13:24:33;;;;;;;;;;;;;;;;;;5019373;28;20007;-86
2023/02/11 13:26:59;;;;;;;;;;;;;;;;;;5037323;28;19909;-84
2023/02/11 13:29:26;;;;;;;;;;;;;;;;;;5020354;28;19947;-84
2023/02/11 13:31:52;;;;;;;;;;;;;;;;;;5036824;28;19956;-84
2023/02/11 13:34:18;;;;;;;;;;;;;;;;;;5035963;28;19909;-84
2023/02/11 13:36:44;;;;;;;;;;;;;;;;;;5036378;28;19917;-82
2023/02/11 13:39:10;;;;;;;;;;;;;;;;;;5037722;28;19919;-84
2023/02/11 13:41:36;;;;;;;;;;;;;;;;;;5038795;28;19916;-84
2023/02/11 13:44:02;;;;;;;;;;;;;;;;;;5031364;28;19913;-82
2023/02/11 13:46:28;;;;;;;;;;;;;;;;;;5036492;28;19917;-82
2023/02/11 13:48:54;;;;;;;;;;;;;;;;;;5037058;28;19932;-82
2023/02/11 13:51:20;;;;;;;;;;;;;;;;;;5005746;28;20430;-84
2023/02/11 13:53:46;;;;;;;;;;;;;;;;;;5051755;28;20354;-84
2023/02/11 13:56:12;;;;;;;;;;;;;;;;;;5036498;28;19956;-85
2023/02/11 13:58:38;;;;;;;;;;;;;;;;;;5046113;28;19913;-86
2023/02/11 14:01:04;;;;;;;;;;;;;;;;;;5023093;28;20007;-85
2023/02/11 14:09:00;;;;;;;;;;;;;;;;;;5035506;28;19920;-84
2023/02/11 14:11:26;;;;;;;;;;;;;;;;;;5039916;28;19917;-85
2023/02/11 14:13:52;;;;;;;;;;;;;;;;;;5039373;28;19936;-85
2023/02/11 14:16:21;;;;;;;;;;;;;;;;;;5045450;28;19917;-85
2023/02/11 14:18:47;;;;;;;;;;;;;;;;;;5039689;28;19913;-84
2023/02/11 14:21:13;;;;;;;;;;;;;;;;;;5022805;28;19913;-86
2023/02/11 14:23:39;;;;;;;;;;;;;;;;;;5028109;28;19919;-84
2023/02/11 14:26:05;;;;;;;;;;;;;;;;;;5022192;28;20290;-83
2023/02/11 14:28:33;;;;;;;;;;;;;;;;;;5049537;28;20329;-85
2023/02/11 14:30:58;;;;;;;;;;;;;;;;;;5033203;28;19913;-84
2023/02/11 14:33:24;;;;;;;;;;;;;;;;;;5043365;28;19920;-83
2023/02/11 14:35:51;;;;;;;;;;;;;;;;;;5032139;28;20383;-83
2023/02/11 14:38:17;;;;;;;;;;;;;;;;;;5034773;28;19917;-83
2023/02/11 14:40:43;;;;;;;;;;;;;;;;;;5034815;28;19991;-84
2023/02/11 14:43:09;;;;;;;;;;;;;;;;;;5045842;28;19913;-83
2023/02/11 14:45:35;;;;;;;;;;;;;;;;;;5029482;28;19913;-83
2023/02/11 14:48:01;;;;;;;;;;;;;;;;;;5033743;28;19959;-84
2023/02/11 14:50:27;;;;;;;;;;;;;;;;;;5033884;28;19913;-83
2023/02/11 14:52:53;;;;;;;;;;;;;;;;;;5009442;28;19920;-83
2023/02/11 14:55:19;;;;;;;;;;;;;;;;;;5037075;28;19913;-84
2023/02/11 14:57:48;;;;;;;;;;;;;;;;;;5030148;28;20008;-83
2023/02/11 15:00:14;;;;;;;;;;;;;;;;;;5038297;28;19909;-84
2023/02/11 15:02:40;;;;;;;;;;;;;;;;;;5035304;28;19920;-84
2023/02/11 15:05:06;;;;;;;;;;;;;;;;;;5033354;28;19913;-84
2023/02/11 15:07:31;;;;;;;;;;;;;;;;;;5028486;28;19913;-83
2023/02/11 15:09:57;;;;;;;;;;;;;;;;;;5037701;28;19913;-84
2023/02/11 15:12:23;;;;;;;;;;;;;;;;;;5036974;28;20374;-85
2023/02/11 15:14:49;;;;;;;;;;;;;;;;;;5036985;28;19921;-84
2023/02/11 15:17:15;;;;;;;;;;;;;;;;;;5037929;28;19928;-83
2023/02/11 15:19:41;;;;;;;;;;;;;;;;;;5037136;28;20000;-83
2023/02/11 15:22:09;;;;;;;;;;;;;;;;;;5036669;28;19944;-84
2023/02/11 15:24:37;;;;;;;;;;;;;;;;;;5036179;28;19928;-84
2023/02/11 15:27:03;;;;;;;;;;;;;;;;;;5036363;28;19921;-84
2023/02/11 15:29:29;;;;;;;;;;;;;;;;;;5036997;28;20346;-83
2023/02/11 15:31:55;;;;;;;;;;;;;;;;;;5018165;28;19921;-84
2023/02/11 15:34:21;;;;;;;;;;;;;;;;;;5031853;28;19916;-83
2023/02/11 15:36:47;;;;;;;;;;;;;;;;;;5035791;28;19971;-84
2023/02/11 15:39:13;;;;;;;;;;;;;;;;;;5035454;28;20008;-83
2023/02/11 15:41:39;;;;;;;;;;;;;;;;;;5037380;28;20295;-83
2023/02/11 15:44:05;;;;;;;;;;;;;;;;;;5037233;28;19913;-85
2023/02/11 15:46:30;;;;;;;;;;;;;;;;;;5036791;28;19913;-84
2023/02/11 15:48:56;;;;;;;;;;;;;;;;;;5035232;28;20417;-83
2023/02/11 15:51:24;;;;;;;;;;;;;;;;;;5037897;28;19995;-84
2023/02/11 15:53:51;;;;;;;;;;;;;;;;;;5020986;28;20002;-84
2023/02/11 15:56:17;;;;;;;;;;;;;;;;;;5046944;28;19936;-83
2023/02/11 15:58:43;;;;;;;;;;;;;;;;;;5018219;28;20352;-84
2023/02/11 16:01:09;;;;;;;;;;;;;;;;;;5034533;28;19919;-84
2023/02/11 16:03:35;;;;;;;;;;;;;;;;;;5029806;28;20161;-85
2023/02/11 16:06:01;;;;;;;;;;;;;;;;;;5028974;28;19920;-86
2023/02/11 16:08:28;;;;;;;;;;;;;;;;;;5035022;28;19913;-85
2023/02/11 16:10:57;;;;;;;;;;;;;;;;;;5031933;28;19919;-85
2023/02/11 16:13:23;;;;;;;;;;;;;;;;;;5032341;28;20379;-86
2023/02/11 16:15:49;;;;;;;;;;;;;;;;;;5029956;28;19969;-85
2023/02/11 16:18:15;;;;;;;;;;;;;;;;;;5034586;28;19925;-83
2023/02/11 16:20:41;;;;;;;;;;;;;;;;;;5015701;28;19913;-84
2023/02/11 16:23:07;;;;;;;;;;;;;;;;;;5017895;28;19913;-83
2023/02/11 16:25:33;;;;;;;;;;;;;;;;;;5031978;28;19913;-84
2023/02/11 16:27:58;;;;;;;;;;;;;;;;;;5032055;28;19921;-84
2023/02/11 16:30:24;;;;;;;;;;;;;;;;;;5036327;28;19921;-83
2023/02/11 16:32:50;;;;;;;;;;;;;;;;;;5031018;28;19959;-83
2023/02/11 16:35:16;;;;;;;;;;;;;;;;;;5041502;28;20367;-83
2023/02/11 16:37:42;;;;;;;;;;;;;;;;;;5033966;28;20012;-81
2023/02/11 16:40:10;;;;;;;;;;;;;;;;;;5037936;28;19944;-82
2023/02/11 16:42:36;;;;;;;;;;;;;;;;;;5037762;28;19963;-82
2023/02/11 16:45:02;;;;;;;;;;;;;;;;;;5018073;28;19909;-85
2023/02/11 16:47:29;;;;;;;;;;;;;;;;;;5033350;28;20012;-84
2023/02/11 16:49:55;;;;;;;;;;;;;;;;;;5016952;28;20283;-82
2023/02/11 16:52:21;;;;;;;;;;;;;;;;;;5021034;28;19920;-84
2023/02/11 16:54:47;;;;;;;;;;;;;;;;;;5028910;28;19960;-82
2023/02/11 16:57:13;;;;;;;;;;;;;;;;;;5027445;28;19917;-84
2023/02/11 16:59:39;;;;;;;;;;;;;;;;;;5032496;28;19914;-85
2023/02/11 17:02:05;;;;;;;;;;;;;;;;;;5036032;28;19920;-84